createdAt,value
2017-11-13T00:00:05.381Z,4.80
2017-11-13T00:02:08.026Z,4.70
2017-11-13T00:04:09.270Z,4.70
2017-11-13T00:06:10.856Z,4.70
2017-11-13T00:08:13.549Z,4.70
2017-11-13T00:10:15.262Z,4.70
2017-11-13T00:12:18.171Z,4.70
2017-11-13T00:14:19.609Z,4.80
2017-11-13T00:16:20.778Z,4.70
2017-11-13T00:18:21.903Z,4.70
2017-11-13T00:20:37.747Z,4.70
2017-11-13T00:27:39.787Z,4.70
2017-11-13T00:29:40.925Z,4.70
2017-11-13T00:34:20.156Z,4.70
2017-11-13T00:38:52.275Z,4.70
2017-11-13T00:40:54.952Z,4.60
2017-11-13T00:45:23.479Z,4.60
2017-11-13T00:47:25.078Z,4.60
2017-11-13T00:49:26.364Z,4.50
2017-11-13T00:51:30.391Z,4.60
2017-11-13T00:53:31.563Z,4.60
2017-11-13T00:55:32.700Z,4.50
2017-11-13T00:57:52.505Z,4.60
2017-11-13T00:59:54.008Z,4.50
2017-11-13T01:01:55.636Z,4.50
2017-11-13T01:03:57.236Z,4.50
2017-11-13T01:06:00.325Z,4.50
2017-11-13T01:08:01.558Z,4.50
2017-11-13T01:10:02.708Z,4.50
2017-11-13T01:12:23.277Z,4.50
2017-11-13T01:14:24.425Z,4.50
2017-11-13T01:16:25.682Z,4.50
2017-11-13T01:18:44.387Z,4.60
2017-11-13T01:20:45.557Z,4.60
2017-11-13T01:22:51.523Z,4.60
2017-11-13T01:25:00.957Z,4.60
2017-11-13T01:27:02.229Z,4.60
2017-11-13T01:29:03.647Z,4.60
2017-11-13T01:31:06.543Z,4.60
2017-11-13T01:35:52.782Z,4.60
2017-11-13T01:37:55.563Z,4.60
2017-11-13T01:40:12.255Z,4.60
2017-11-13T01:44:43.811Z,4.60
2017-11-13T01:49:23.546Z,4.70
2017-11-13T01:51:26.436Z,4.70
2017-11-13T01:53:32.851Z,4.70
2017-11-13T01:55:40.588Z,4.70
2017-11-13T01:57:42.697Z,4.70
2017-11-13T01:59:47.641Z,4.70
2017-11-13T02:01:49.125Z,4.70
2017-11-13T02:06:24.289Z,4.80
2017-11-13T02:08:40.791Z,4.80
2017-11-13T02:15:37.322Z,4.70
2017-11-13T02:17:43.790Z,4.70
2017-11-13T02:22:12.013Z,4.70
2017-11-13T02:24:13.438Z,4.70
2017-11-13T02:26:14.807Z,4.70
2017-11-13T02:28:15.956Z,4.70
2017-11-13T02:30:41.011Z,4.60
2017-11-13T02:32:45.527Z,4.60
2017-11-13T02:34:47.174Z,4.60
2017-11-13T02:36:49.060Z,4.50
2017-11-13T02:41:28.948Z,4.40
2017-11-13T02:43:30.219Z,4.40
2017-11-13T02:45:31.292Z,4.40
2017-11-13T02:47:34.188Z,4.40
2017-11-13T02:49:35.969Z,4.40
2017-11-13T02:51:37.142Z,4.40
2017-11-13T02:53:40.005Z,4.40
2017-11-13T02:55:41.483Z,4.40
2017-11-13T02:57:42.523Z,4.40
2017-11-13T02:59:43.645Z,4.30
2017-11-13T03:01:58.431Z,4.40
2017-11-13T03:06:27.061Z,4.40
2017-11-13T03:10:57.780Z,4.40
2017-11-13T03:12:58.878Z,4.40
2017-11-13T03:15:00.346Z,4.50
2017-11-13T03:19:57.822Z,4.50
2017-11-13T03:22:13.077Z,4.50
2017-11-13T03:24:14.893Z,4.60
2017-11-13T03:26:16.794Z,4.60
2017-11-13T03:28:18.021Z,4.60
2017-11-13T03:30:19.404Z,4.60
2017-11-13T03:32:20.536Z,4.60
2017-11-13T03:34:48.640Z,4.60
2017-11-13T03:36:50.523Z,4.60
2017-11-13T03:38:51.945Z,4.60
2017-11-13T03:40:53.461Z,4.60
2017-11-13T03:42:54.541Z,4.60
2017-11-13T03:44:55.665Z,4.50
2017-11-13T03:46:56.730Z,4.50
2017-11-13T03:49:03.350Z,4.50
2017-11-13T03:53:34.894Z,4.50
2017-11-13T03:55:38.527Z,4.40
2017-11-13T04:02:55.773Z,4.30
2017-11-13T04:05:07.065Z,4.20
2017-11-13T04:18:49.262Z,3.80
2017-11-13T04:20:50.394Z,3.80
2017-11-13T04:22:51.506Z,3.80
2017-11-13T04:24:57.606Z,3.70
2017-11-13T04:29:37.188Z,3.70
2017-11-13T04:31:38.275Z,3.60
2017-11-13T04:33:39.305Z,3.60
2017-11-13T04:35:40.950Z,3.50
2017-11-13T04:37:41.994Z,3.50
2017-11-13T04:44:50.316Z,3.40
2017-11-13T04:46:58.482Z,3.30
2017-11-13T04:49:15.227Z,3.30
2017-11-13T04:51:38.386Z,3.20
2017-11-13T04:53:40.409Z,3.20
2017-11-13T04:55:48.586Z,3.20
2017-11-13T04:57:49.735Z,3.10
2017-11-13T04:59:50.821Z,3.10
2017-11-13T05:04:01.736Z,3.10
2017-11-13T05:06:02.940Z,3.00
2017-11-13T05:08:04.102Z,3.00
2017-11-13T05:10:06.284Z,3.00
2017-11-13T05:14:30.994Z,2.90
2017-11-13T05:16:32.117Z,2.90
2017-11-13T05:23:12.822Z,2.90
2017-11-13T05:25:14.152Z,2.90
2017-11-13T05:27:15.234Z,2.90
2017-11-13T05:29:39.901Z,2.80
2017-11-13T05:31:40.939Z,2.80
2017-11-13T05:33:42.411Z,2.80
2017-11-13T05:35:43.930Z,2.80
2017-11-13T05:37:45.387Z,2.80
2017-11-13T05:42:14.399Z,2.70
2017-11-13T05:44:15.515Z,2.70
2017-11-13T05:46:16.550Z,2.70
2017-11-13T05:50:46.834Z,2.70
2017-11-13T05:52:49.648Z,2.70
2017-11-13T05:54:51.326Z,2.70
2017-11-13T05:56:52.378Z,2.70
2017-11-13T06:01:20.944Z,2.80
2017-11-13T06:06:01.196Z,2.90
2017-11-13T06:08:23.349Z,2.90
2017-11-13T06:10:24.754Z,2.80
2017-11-13T06:12:26.135Z,2.80
2017-11-13T06:16:57.393Z,2.80
2017-11-13T06:21:37.875Z,2.80
2017-11-13T06:23:48.321Z,2.80
2017-11-13T06:25:49.756Z,2.80
2017-11-13T06:28:08.938Z,2.80
2017-11-13T06:30:10.180Z,2.80
2017-11-13T06:32:14.106Z,2.80
2017-11-13T07:28:29.101Z,3.20
2017-11-13T07:30:30.246Z,3.30
2017-11-13T07:35:16.618Z,3.30
2017-11-13T07:37:28.451Z,3.40
2017-11-13T07:39:29.503Z,3.40
2017-11-13T07:41:41.698Z,3.50
2017-11-13T07:46:10.592Z,3.70
2017-11-13T07:53:11.879Z,4.30
2017-11-13T07:55:13.010Z,4.30
2017-11-13T07:57:14.039Z,4.30
2017-11-13T07:59:21.999Z,4.30
2017-11-13T08:01:23.396Z,4.30
2017-11-13T08:03:24.465Z,4.30
2017-11-13T08:05:26.201Z,4.20
2017-11-13T08:07:28.313Z,4.30
2017-11-13T08:09:29.351Z,4.30
2017-11-13T08:11:30.718Z,4.40
2017-11-13T08:13:31.831Z,4.40
2017-11-13T08:15:32.852Z,4.40
2017-11-13T08:17:33.845Z,4.40
2017-11-13T08:19:34.859Z,4.50
2017-11-13T08:21:35.915Z,4.50
2017-11-13T08:23:37.146Z,4.60
2017-11-13T08:25:38.184Z,4.70
2017-11-13T08:27:39.243Z,4.70
2017-11-13T08:29:40.281Z,4.70
2017-11-13T08:31:41.293Z,4.70
2017-11-13T08:33:42.253Z,4.70
2017-11-13T08:35:43.327Z,4.80
2017-11-13T08:37:44.359Z,4.90
2017-11-13T08:39:45.375Z,5.00
2017-11-13T08:41:46.381Z,5.00
2017-11-13T08:43:47.318Z,5.10
2017-11-13T08:45:48.347Z,5.20
2017-11-13T08:47:49.356Z,5.40
2017-11-13T08:49:50.382Z,5.90
2017-11-13T08:51:51.487Z,6.30
2017-11-13T08:53:52.769Z,7.40
2017-11-13T08:55:53.846Z,8.20
2017-11-13T08:57:54.846Z,9.10
2017-11-13T09:00:02.705Z,10.00
2017-11-13T09:02:03.739Z,10.00
2017-11-13T09:04:04.746Z,10.10
2017-11-13T09:06:05.765Z,10.90
2017-11-13T09:08:07.967Z,11.90
2017-11-13T09:10:09.032Z,11.90
2017-11-13T09:12:10.025Z,12.20
2017-11-13T09:14:11.064Z,12.60
2017-11-13T09:16:12.116Z,12.60
2017-11-13T09:18:13.119Z,12.80
2017-11-13T09:20:14.172Z,12.90
2017-11-13T09:22:15.592Z,12.90
2017-11-13T09:24:17.411Z,13.40
2017-11-13T09:26:18.419Z,13.40
2017-11-13T09:28:19.564Z,13.90
2017-11-13T09:30:20.563Z,14.30
2017-11-13T09:32:21.593Z,14.40
2017-11-13T09:34:22.685Z,14.50
2017-11-13T09:36:23.773Z,14.50
2017-11-13T09:38:24.754Z,14.80
2017-11-13T09:40:25.785Z,14.80
2017-11-13T09:42:26.794Z,15.00
2017-11-13T09:44:28.655Z,15.50
2017-11-13T09:46:30.540Z,15.40
2017-11-13T09:48:31.578Z,15.30
2017-11-13T09:50:32.619Z,15.30
2017-11-13T09:52:33.639Z,15.60
2017-11-13T09:54:34.633Z,16.10
2017-11-13T09:56:35.670Z,16.20
2017-11-13T09:58:37.439Z,16.00
2017-11-13T10:00:38.489Z,15.90
2017-11-13T10:02:39.502Z,16.40
2017-11-13T10:04:40.577Z,16.60
2017-11-13T10:06:42.336Z,16.20
2017-11-13T10:08:43.341Z,16.20
2017-11-13T10:10:44.370Z,16.10
2017-11-13T10:12:45.365Z,15.70
2017-11-13T10:14:47.135Z,15.50
2017-11-13T10:16:48.150Z,15.50
2017-11-13T10:18:49.155Z,15.40
2017-11-13T10:20:50.240Z,16.20
2017-11-13T10:22:51.335Z,16.30
2017-11-13T10:24:52.356Z,16.20
2017-11-13T10:26:54.113Z,16.20
2017-11-13T10:28:55.179Z,16.40
2017-11-13T10:30:57.013Z,16.80
2017-11-13T10:32:58.083Z,16.80
2017-11-13T10:34:59.242Z,16.50
2017-11-13T10:37:00.278Z,16.40
2017-11-13T10:39:01.360Z,16.20
2017-11-13T10:41:02.467Z,16.20
2017-11-13T10:43:03.557Z,16.60
2017-11-13T10:45:04.587Z,16.60
2017-11-13T10:47:05.598Z,16.50
2017-11-13T10:49:06.589Z,16.40
2017-11-13T10:51:08.406Z,16.00
2017-11-13T10:53:09.549Z,16.00
2017-11-13T10:55:10.659Z,16.10
2017-11-13T10:57:11.679Z,16.00
2017-11-13T10:59:12.792Z,15.90
2017-11-13T11:01:13.849Z,16.20
2017-11-13T11:03:14.972Z,16.20
2017-11-13T11:05:16.052Z,16.70
2017-11-13T11:07:17.029Z,17.10
2017-11-13T11:09:18.062Z,17.20
2017-11-13T11:11:19.941Z,18.00
2017-11-13T11:13:23.156Z,18.00
2017-11-13T11:15:27.875Z,17.80
2017-11-13T11:17:30.806Z,17.80
2017-11-13T11:19:36.634Z,18.10
2017-11-13T11:21:39.599Z,18.00
2017-11-13T11:23:40.674Z,18.30
2017-11-13T11:25:41.722Z,18.80
2017-11-13T11:27:42.766Z,18.90
2017-11-13T11:29:44.536Z,19.00
2017-11-13T11:31:46.305Z,19.40
2017-11-13T11:33:53.107Z,19.10
2017-11-13T11:35:58.927Z,19.30
2017-11-13T11:37:59.948Z,19.20
2017-11-13T11:40:00.942Z,19.40
2017-11-13T11:42:01.933Z,19.30
2017-11-13T11:44:04.859Z,18.90
2017-11-13T11:46:15.881Z,18.90
2017-11-13T11:48:16.918Z,19.40
2017-11-13T11:50:17.983Z,19.60
2017-11-13T11:52:19.028Z,19.50
2017-11-13T11:54:20.158Z,19.40
2017-11-13T11:56:31.111Z,20.00
2017-11-13T11:58:32.240Z,19.40
2017-11-13T12:00:33.360Z,19.50
2017-11-13T12:02:34.419Z,19.60
2017-11-13T12:04:35.569Z,19.60
2017-11-13T12:06:36.595Z,19.30
2017-11-13T12:08:37.680Z,19.60
2017-11-13T12:10:38.774Z,19.40
2017-11-13T12:12:40.529Z,19.00
2017-11-13T12:14:41.586Z,19.00
2017-11-13T12:16:42.640Z,19.20
2017-11-13T12:18:43.749Z,19.60
2017-11-13T12:20:44.987Z,19.20
2017-11-13T12:22:46.041Z,19.20
2017-11-13T12:24:47.125Z,19.40
2017-11-13T12:26:48.167Z,19.10
2017-11-13T12:28:49.151Z,19.60
2017-11-13T12:30:50.177Z,20.00
2017-11-13T12:32:52.171Z,20.10
2017-11-13T12:34:53.296Z,20.10
2017-11-13T12:36:55.122Z,20.50
2017-11-13T12:38:56.335Z,20.50
2017-11-13T12:40:57.418Z,19.90
2017-11-13T12:42:58.898Z,19.50
2017-11-13T12:45:00.227Z,19.40
2017-11-13T12:47:01.215Z,19.40
2017-11-13T12:49:02.352Z,19.60
2017-11-13T12:51:03.413Z,19.80
2017-11-13T12:53:04.443Z,20.00
2017-11-13T12:55:05.549Z,19.90
2017-11-13T12:57:06.735Z,20.10
2017-11-13T12:59:07.954Z,20.00
2017-11-13T13:01:10.162Z,20.30
2017-11-13T13:03:11.281Z,20.20
2017-11-13T13:05:12.427Z,20.00
2017-11-13T13:07:13.643Z,20.20
2017-11-13T13:09:14.856Z,19.90
2017-11-13T13:11:16.046Z,19.90
2017-11-13T13:13:17.221Z,20.20
2017-11-13T13:15:18.458Z,19.40
2017-11-13T13:17:19.580Z,20.00
2017-11-13T13:19:20.624Z,19.90
2017-11-13T13:21:21.856Z,19.70
2017-11-13T13:23:23.013Z,19.60
2017-11-13T13:25:24.054Z,19.60
2017-11-13T13:27:26.124Z,19.60
2017-11-13T13:29:27.233Z,19.40
2017-11-13T13:31:29.203Z,18.60
2017-11-13T13:33:30.301Z,18.60
2017-11-13T13:35:31.611Z,19.20
2017-11-13T13:37:32.789Z,19.20
2017-11-13T13:39:34.001Z,19.20
2017-11-13T13:41:35.212Z,19.20
2017-11-13T13:43:38.488Z,18.60
2017-11-13T13:45:39.632Z,19.00
2017-11-13T13:47:40.734Z,19.10
2017-11-13T13:49:41.843Z,19.10
2017-11-13T13:51:42.835Z,19.10
2017-11-13T13:53:43.874Z,19.30
2017-11-13T13:55:44.979Z,19.10
2017-11-13T13:57:46.229Z,19.20
2017-11-13T13:59:47.489Z,19.10
2017-11-13T14:01:48.683Z,18.50
2017-11-13T14:03:50.687Z,18.10
2017-11-13T14:05:51.856Z,18.10
2017-11-13T14:07:53.005Z,17.60
2017-11-13T14:09:54.282Z,17.10
2017-11-13T14:11:55.492Z,16.90
2017-11-13T14:13:56.606Z,16.80
2017-11-13T14:15:57.667Z,16.70
2017-11-13T14:17:58.846Z,16.00
2017-11-13T14:19:59.956Z,15.50
2017-11-13T14:22:01.804Z,15.20
2017-11-13T14:24:02.835Z,15.20
2017-11-13T14:26:04.011Z,14.90
2017-11-13T14:28:06.754Z,14.40
2017-11-13T14:30:08.015Z,14.40
2017-11-13T14:32:09.132Z,13.90
2017-11-13T14:34:10.325Z,14.00
2017-11-13T14:36:11.455Z,14.00
2017-11-13T14:38:12.565Z,14.10
2017-11-13T14:40:13.591Z,13.40
2017-11-13T14:42:14.853Z,13.10
2017-11-13T14:44:16.077Z,13.10
2017-11-13T14:46:17.950Z,12.80
2017-11-13T14:48:19.158Z,12.80
2017-11-13T14:50:20.613Z,12.60
2017-11-13T14:52:21.665Z,12.30
2017-11-13T14:54:22.904Z,12.10
2017-11-13T14:56:24.028Z,12.00
2017-11-13T14:58:25.120Z,11.80
2017-11-13T15:00:26.202Z,11.50
2017-11-13T15:02:27.213Z,11.70
2017-11-13T15:04:28.388Z,11.70
2017-11-13T15:06:29.360Z,11.90
2017-11-13T15:08:30.369Z,11.70
2017-11-13T15:10:31.456Z,11.60
2017-11-13T15:12:33.265Z,11.20
2017-11-13T15:14:34.992Z,10.90
2017-11-13T15:16:35.998Z,10.90
2017-11-13T15:18:36.992Z,10.80
2017-11-13T15:20:37.958Z,10.60
2017-11-13T15:22:39.002Z,10.40
2017-11-13T15:24:40.041Z,10.20
2017-11-13T15:26:41.110Z,10.10
2017-11-13T15:28:42.172Z,10.00
2017-11-13T15:30:44.930Z,9.90
2017-11-13T15:32:45.929Z,9.60
2017-11-13T15:34:46.981Z,9.50
2017-11-13T15:36:48.051Z,9.60
2017-11-13T15:38:49.935Z,9.40
2017-11-13T15:40:51.323Z,9.30
2017-11-13T15:42:52.753Z,9.30
2017-11-13T15:44:54.257Z,9.30
2017-11-13T15:46:55.630Z,9.30
2017-11-13T15:48:56.981Z,9.20
2017-11-13T15:50:58.248Z,9.20
2017-11-13T15:52:59.600Z,9.10
2017-11-13T15:55:00.759Z,9.10
2017-11-13T15:57:01.778Z,9.00
2017-11-13T15:59:02.865Z,8.90
2017-11-13T16:01:04.386Z,8.90
2017-11-13T16:03:05.524Z,8.90
2017-11-13T16:05:06.518Z,8.80
2017-11-13T16:07:07.506Z,8.70
2017-11-13T16:09:08.537Z,8.70
2017-11-13T16:11:09.580Z,8.60
2017-11-13T16:13:10.737Z,8.50
2017-11-13T16:15:11.821Z,8.50
2017-11-13T16:17:13.669Z,8.40
2017-11-13T16:19:14.709Z,8.40
2017-11-13T16:21:15.763Z,8.30
2017-11-13T16:23:16.789Z,8.30
2017-11-13T16:25:17.812Z,8.20
2017-11-13T16:27:19.970Z,8.20
2017-11-13T16:29:20.994Z,8.20
2017-11-13T16:31:22.097Z,8.20
2017-11-13T16:33:23.210Z,8.10
2017-11-13T16:35:24.497Z,8.00
2017-11-13T16:37:25.516Z,8.00
2017-11-13T16:39:26.531Z,8.00
2017-11-13T16:41:27.549Z,7.90
2017-11-13T16:43:28.628Z,7.90
2017-11-13T16:45:29.803Z,7.80
2017-11-13T16:47:30.805Z,7.70
2017-11-13T16:49:31.805Z,7.50
2017-11-13T16:51:32.838Z,7.50
2017-11-13T16:53:33.881Z,7.50
2017-11-13T16:55:35.073Z,7.40
2017-11-13T16:57:36.358Z,7.40
2017-11-13T16:59:37.409Z,7.40
2017-11-13T17:01:38.563Z,7.30
2017-11-13T17:03:39.683Z,7.30
2017-11-13T17:05:41.187Z,7.20
2017-11-13T17:07:42.779Z,7.20
2017-11-13T17:09:43.890Z,7.10
2017-11-13T17:11:45.000Z,7.10
2017-11-13T17:13:46.075Z,7.10
2017-11-13T17:15:47.092Z,7.20
2017-11-13T17:17:48.110Z,7.20
2017-11-13T17:19:49.298Z,7.20
2017-11-13T17:21:50.401Z,7.20
2017-11-13T17:23:51.404Z,7.30
2017-11-13T17:25:52.431Z,7.30
2017-11-13T17:27:53.447Z,7.20
2017-11-13T17:29:54.557Z,7.30
2017-11-13T17:31:55.585Z,7.30
2017-11-13T17:33:56.761Z,7.30
2017-11-13T17:35:57.855Z,7.30
2017-11-13T17:37:59.705Z,7.30
2017-11-13T17:40:01.490Z,7.30
2017-11-13T17:42:03.558Z,7.30
2017-11-13T17:44:04.574Z,7.20
2017-11-13T17:46:05.891Z,7.30
2017-11-13T17:48:06.897Z,7.30
2017-11-13T17:50:07.946Z,7.20
2017-11-13T17:52:09.231Z,7.20
2017-11-13T17:54:10.349Z,7.20
2017-11-13T17:56:11.385Z,7.20
2017-11-13T17:58:12.515Z,7.20
2017-11-13T18:00:13.762Z,7.20
2017-11-13T18:02:14.786Z,7.10
2017-11-13T18:04:15.797Z,7.10
2017-11-13T18:06:16.871Z,7.10
2017-11-13T18:08:17.919Z,7.00
2017-11-13T18:10:19.181Z,7.00
2017-11-13T18:12:20.342Z,7.00
2017-11-13T18:14:21.482Z,7.00
2017-11-13T18:16:22.671Z,7.00
2017-11-13T18:18:24.764Z,7.00
2017-11-13T18:20:26.796Z,6.90
2017-11-13T18:22:39.533Z,6.90
2017-11-13T18:24:45.934Z,6.90
2017-11-13T18:26:47.173Z,6.90
2017-11-13T18:28:49.646Z,6.90
2017-11-13T18:30:50.687Z,6.90
2017-11-13T18:32:51.808Z,6.90
2017-11-13T18:34:53.841Z,6.90
2017-11-13T18:36:54.853Z,6.80
2017-11-13T18:38:55.953Z,6.80
2017-11-13T18:40:57.091Z,6.80
2017-11-13T18:42:59.228Z,6.80
2017-11-13T18:45:01.614Z,6.80
2017-11-13T18:47:02.713Z,6.70
2017-11-13T18:49:03.896Z,6.70
2017-11-13T18:51:04.957Z,6.60
2017-11-13T18:53:06.019Z,6.60
2017-11-13T18:55:07.021Z,6.50
2017-11-13T18:57:08.066Z,6.50
2017-11-13T18:59:09.099Z,6.40
2017-11-13T19:01:10.940Z,6.30
2017-11-13T19:03:19.157Z,6.30
2017-11-13T19:39:29.623Z,6.10
2017-11-13T19:41:31.430Z,6.00
2017-11-13T19:45:59.013Z,5.90
2017-11-13T19:48:02.168Z,5.80
2017-11-13T19:50:03.333Z,5.80
2017-11-13T19:52:04.384Z,5.80
2017-11-13T19:54:08.000Z,5.70
2017-11-13T19:56:10.796Z,5.70
2017-11-13T19:58:12.237Z,5.70
2017-11-13T20:00:13.519Z,5.70
2017-11-13T20:02:17.081Z,5.70
2017-11-13T20:04:18.317Z,5.70
2017-11-13T20:06:20.564Z,5.70
2017-11-13T20:08:22.898Z,5.70
2017-11-13T20:10:24.272Z,5.70
2017-11-13T20:12:26.408Z,5.80
2017-11-13T20:19:46.174Z,5.80
2017-11-13T20:21:50.391Z,5.80
2017-11-13T20:24:11.622Z,5.80
2017-11-13T20:26:17.885Z,5.80
2017-11-13T20:28:19.059Z,5.90
2017-11-13T20:30:20.156Z,5.90
2017-11-13T20:32:21.698Z,5.90
2017-11-13T20:36:38.330Z,5.90
2017-11-13T20:38:42.394Z,5.80
2017-11-13T20:40:51.677Z,5.70
2017-11-13T20:42:54.219Z,5.70
2017-11-13T20:44:58.324Z,5.70
2017-11-13T20:46:59.341Z,5.70
2017-11-13T20:49:00.608Z,5.70
2017-11-13T20:51:03.325Z,5.70
2017-11-13T20:55:51.623Z,5.70
2017-11-13T20:57:52.771Z,5.70
2017-11-13T20:59:54.252Z,5.80
2017-11-13T21:01:55.310Z,5.80
2017-11-13T21:03:57.008Z,5.80
2017-11-13T21:06:29.030Z,5.90
2017-11-13T21:08:30.481Z,5.90
2017-11-13T21:10:31.536Z,5.90
2017-11-13T21:12:32.656Z,5.90
2017-11-13T21:14:33.909Z,5.90
2017-11-13T21:16:34.995Z,5.90
2017-11-13T21:18:36.657Z,5.90
2017-11-13T21:20:38.826Z,5.90
2017-11-13T21:22:40.058Z,5.90
2017-11-13T21:24:41.907Z,5.90
2017-11-13T21:26:42.932Z,5.80
2017-11-13T21:36:20.298Z,5.70
2017-11-13T21:41:19.610Z,5.60
2017-11-13T21:43:21.022Z,5.60
2017-11-13T21:45:23.308Z,5.50
2017-11-13T21:50:07.314Z,5.40
2017-11-13T21:52:08.414Z,5.20
2017-11-13T21:54:16.080Z,5.10
2017-11-13T21:56:28.492Z,5.00
2017-11-13T21:58:29.545Z,5.00
2017-11-13T22:00:32.638Z,5.00
2017-11-13T22:07:32.820Z,4.90
2017-11-13T22:09:33.889Z,4.80
2017-11-13T22:11:34.952Z,4.80
2017-11-13T22:13:47.016Z,4.80
2017-11-13T22:15:48.074Z,4.80
2017-11-13T22:17:49.408Z,4.70
2017-11-13T22:19:50.477Z,4.70
2017-11-13T22:21:58.669Z,4.60
2017-11-13T22:24:05.830Z,4.60
2017-11-13T22:26:07.002Z,4.60
2017-11-13T22:28:23.390Z,4.50
2017-11-13T22:30:24.421Z,4.50
2017-11-13T22:34:32.947Z,4.50
2017-11-13T22:36:34.957Z,4.50
2017-11-13T22:38:39.555Z,4.50
2017-11-13T22:43:10.554Z,4.50
2017-11-13T22:45:11.718Z,4.50
2017-11-13T22:47:34.360Z,4.50
2017-11-13T22:49:36.091Z,4.50
2017-11-13T22:51:40.700Z,4.50
2017-11-13T22:53:42.512Z,4.50
2017-11-13T22:56:01.370Z,4.50
2017-11-13T22:58:02.483Z,4.50
2017-11-13T23:00:04.258Z,4.50
2017-11-13T23:02:05.293Z,4.50
2017-11-13T23:04:06.686Z,4.50
2017-11-13T23:06:07.702Z,4.40
2017-11-13T23:08:08.715Z,4.40
2017-11-13T23:10:09.831Z,4.40
2017-11-13T23:12:11.244Z,4.30
2017-11-13T23:14:12.939Z,4.40
2017-11-13T23:16:13.980Z,4.30
2017-11-13T23:18:15.001Z,4.30
2017-11-13T23:20:16.071Z,4.20
2017-11-13T23:22:17.838Z,4.20
2017-11-13T23:24:18.861Z,4.20
2017-11-13T23:26:19.845Z,4.20
2017-11-13T23:28:20.866Z,4.20
2017-11-13T23:30:22.675Z,4.20
2017-11-13T23:32:23.783Z,4.20
2017-11-13T23:34:24.970Z,4.20
2017-11-13T23:36:25.952Z,4.10
2017-11-13T23:38:26.947Z,4.10
2017-11-13T23:40:28.815Z,4.10
2017-11-13T23:42:29.846Z,4.10
2017-11-13T23:44:30.839Z,4.10
2017-11-13T23:46:31.846Z,4.10
2017-11-13T23:48:32.851Z,4.00
2017-11-13T23:50:34.421Z,4.00
2017-11-13T23:52:35.500Z,4.00
2017-11-13T23:54:36.575Z,4.00
2017-11-13T23:56:37.645Z,3.90
2017-11-13T23:58:38.689Z,3.90
